CPA430 VHHH-RKSI
Flight info
| Callsign | CPA430 |
|---|---|
| Flight time | N/A |
| Altitude | 39000 |
| Route | DALOL V631 ENVAR M750 ANLOT B1 APU DCT DRAKE Q11 WP900 L4 LIPLO Y741 ATOTI Y722 OLMEN OLMEN2H |
| Aircraft | A333/H-SDE3GHIJ2J3J5M1RVWXY/LB2D1 |
Departure
| Time | 2026-05-06 16:19 |
|---|---|
| Airport | Hong Kong International Airport (VHHH) |
Arrival
| Time | N/A |
|---|---|
| Airport | Incheon International Airport (RKSI) |
| Time | Latitude | Longitude | Altitude | Speed | Heading |
|---|---|---|---|---|---|
| 2026-05-06 15:40 | 22.31040 | 113.91673 | 39 ft | 0 kts | 71° |
| 2026-05-06 16:09 | 22.31039 | 113.91669 | 39 ft | 3 kts | 71° |
| 2026-05-06 16:09 | 22.31030 | 113.91642 | 37 ft | 4 kts | 71° |
| 2026-05-06 16:09 | 22.31021 | 113.91614 | 38 ft | 4 kts | 71° |
| 2026-05-06 16:09 | 22.31014 | 113.91592 | 36 ft | 4 kts | 84° |
| 2026-05-06 16:10 | 22.31019 | 113.91569 | 36 ft | 4 kts | 146° |
| 2026-05-06 16:10 | 22.31042 | 113.91558 | 38 ft | 4 kts | 160° |
| 2026-05-06 16:10 | 22.31068 | 113.91548 | 37 ft | 4 kts | 160° |
| 2026-05-06 16:10 | 22.31093 | 113.91538 | 36 ft | 4 kts | 160° |
| 2026-05-06 16:11 | 22.31119 | 113.91529 | 35 ft | 4 kts | 160° |
| 2026-05-06 16:11 | 22.31123 | 113.91527 | 35 ft | 1 kts | 160° |
| 2026-05-06 16:13 | 22.31122 | 113.91527 | 35 ft | 1 kts | 160° |
| 2026-05-06 16:13 | 22.31111 | 113.91532 | 38 ft | 4 kts | 160° |
| 2026-05-06 16:13 | 22.31057 | 113.91552 | 38 ft | 12 kts | 161° |
| 2026-05-06 16:13 | 22.30967 | 113.91586 | 39 ft | 14 kts | 161° |
| 2026-05-06 16:14 | 22.30870 | 113.91623 | 39 ft | 16 kts | 161° |
| 2026-05-06 16:14 | 22.30761 | 113.91664 | 39 ft | 18 kts | 161° |
| 2026-05-06 16:14 | 22.30682 | 113.91693 | 38 ft | 19 kts | 161° |
| 2026-05-06 16:14 | 22.30557 | 113.91739 | 39 ft | 9 kts | 163° |
| 2026-05-06 16:15 | 22.30511 | 113.91682 | 39 ft | 10 kts | 248° |
| 2026-05-06 16:15 | 22.30481 | 113.91595 | 39 ft | 14 kts | 250° |
| 2026-05-06 16:15 | 22.30444 | 113.91481 | 39 ft | 18 kts | 251° |
| 2026-05-06 16:15 | 22.30401 | 113.91346 | 39 ft | 21 kts | 250° |
| 2026-05-06 16:16 | 22.30367 | 113.91243 | 39 ft | 22 kts | 250° |
| 2026-05-06 16:16 | 22.30313 | 113.91076 | 39 ft | 25 kts | 251° |
| 2026-05-06 16:16 | 22.30255 | 113.90893 | 39 ft | 27 kts | 251° |
| 2026-05-06 16:16 | 22.30191 | 113.90698 | 39 ft | 29 kts | 250° |
| 2026-05-06 16:17 | 22.30124 | 113.90495 | 39 ft | 29 kts | 250° |
| 2026-05-06 16:17 | 22.30060 | 113.90299 | 39 ft | 22 kts | 250° |
| 2026-05-06 16:17 | 22.30006 | 113.90204 | 39 ft | 14 kts | 201° |
| 2026-05-06 16:17 | 22.29912 | 113.90223 | 39 ft | 14 kts | 162° |
| 2026-05-06 16:18 | 22.29817 | 113.90257 | 39 ft | 12 kts | 161° |
| 2026-05-06 16:18 | 22.29786 | 113.90300 | 39 ft | 7 kts | 83° |
| 2026-05-06 16:18 | 22.29794 | 113.90328 | 39 ft | 10 kts | 73° |
| 2026-05-06 16:18 | 22.29880 | 113.90599 | 39 ft | 67 kts | 71° |
| 2026-05-06 16:19 | 22.30097 | 113.91267 | 39 ft | 120 kts | 71° |
| 2026-05-06 16:19 | 22.30425 | 113.92280 | 88 ft | 162 kts | 70° |
| 2026-05-06 16:19 | 22.30805 | 113.93412 | 746 ft | 159 kts | 70° |
| 2026-05-06 16:19 | 22.31180 | 113.94536 | 1311 ft | 160 kts | 72° |
| 2026-05-06 16:20 | 22.31565 | 113.95685 | 1843 ft | 163 kts | 73° |
| 2026-05-06 16:20 | 22.31936 | 113.96847 | 2439 ft | 165 kts | 75° |
| 2026-05-06 16:20 | 22.32308 | 113.98046 | 2928 ft | 173 kts | 75° |
| 2026-05-06 16:20 | 22.32705 | 113.99322 | 3332 ft | 190 kts | 73° |
| 2026-05-06 16:21 | 22.33153 | 114.00743 | 3611 ft | 215 kts | 72° |
| 2026-05-06 16:21 | 22.33634 | 114.02357 | 3992 ft | 234 kts | 78° |
| 2026-05-06 16:21 | 22.33798 | 114.04123 | 4582 ft | 239 kts | 96° |
| 2026-05-06 16:21 | 22.33395 | 114.05855 | 5074 ft | 240 kts | 118° |
| 2026-05-06 16:22 | 22.32422 | 114.07319 | 5792 ft | 241 kts | 139° |
| 2026-05-06 16:22 | 22.31033 | 114.08312 | 6536 ft | 241 kts | 160° |
| 2026-05-06 16:22 | 22.29409 | 114.08716 | 7229 ft | 241 kts | 178° |
| 2026-05-06 16:22 | 22.27722 | 114.08763 | 7954 ft | 244 kts | 182° |
| 2026-05-06 16:23 | 22.26012 | 114.08743 | 8665 ft | 249 kts | 183° |
| 2026-05-06 16:23 | 22.24214 | 114.08711 | 9029 ft | 268 kts | 183° |
| 2026-05-06 16:23 | 22.22291 | 114.08678 | 9472 ft | 282 kts | 183° |
| 2026-05-06 16:23 | 22.20300 | 114.08652 | 10079 ft | 290 kts | 183° |
| 2026-05-06 16:24 | 22.18227 | 114.08799 | 10403 ft | 310 kts | 171° |
| 2026-05-06 16:24 | 22.16179 | 114.09733 | 10642 ft | 334 kts | 146° |
| 2026-05-06 16:24 | 22.14362 | 114.11410 | 10911 ft | 352 kts | 137° |
| 2026-05-06 16:24 | 22.12870 | 114.13515 | 11355 ft | 364 kts | 118° |
| 2026-05-06 16:25 | 22.12056 | 114.16128 | 11900 ft | 371 kts | 103° |
| 2026-05-06 16:25 | 22.11665 | 114.18900 | 12507 ft | 376 kts | 96° |
| 2026-05-06 16:25 | 22.11517 | 114.21734 | 13117 ft | 380 kts | 91° |
| 2026-05-06 16:25 | 22.11485 | 114.24594 | 13713 ft | 384 kts | 90° |
| 2026-05-06 16:26 | 22.11486 | 114.27499 | 14244 ft | 388 kts | 90° |
| 2026-05-06 16:26 | 22.11477 | 114.30418 | 14789 ft | 391 kts | 91° |
| 2026-05-06 16:26 | 22.11444 | 114.33359 | 15339 ft | 394 kts | 91° |
| 2026-05-06 16:26 | 22.11386 | 114.36325 | 15876 ft | 397 kts | 92° |
| 2026-05-06 16:27 | 22.11310 | 114.39312 | 16412 ft | 400 kts | 92° |
| 2026-05-06 16:27 | 22.11223 | 114.42322 | 16971 ft | 402 kts | 92° |
| 2026-05-06 16:27 | 22.11130 | 114.45349 | 17504 ft | 405 kts | 92° |
| 2026-05-06 16:27 | 22.11034 | 114.48399 | 17990 ft | 409 kts | 93° |
| 2026-05-06 16:28 | 22.10938 | 114.51478 | 18457 ft | 412 kts | 93° |
| 2026-05-06 16:28 | 22.10841 | 114.54582 | 18876 ft | 415 kts | 93° |
| 2026-05-06 16:28 | 22.10744 | 114.57707 | 19291 ft | 419 kts | 93° |
| 2026-05-06 16:28 | 22.10647 | 114.60855 | 19713 ft | 422 kts | 93° |
| 2026-05-06 16:29 | 22.10548 | 114.64032 | 20115 ft | 426 kts | 93° |
| 2026-05-06 16:29 | 22.10449 | 114.67233 | 20530 ft | 428 kts | 93° |
| 2026-05-06 16:29 | 22.10349 | 114.70409 | 20941 ft | 431 kts | 93° |
| 2026-05-06 16:29 | 22.10247 | 114.73662 | 21354 ft | 434 kts | 93° |
| 2026-05-06 16:30 | 22.10143 | 114.76932 | 21761 ft | 437 kts | 93° |
| 2026-05-06 16:30 | 22.10073 | 114.79111 | 22028 ft | 439 kts | 93° |
| 2026-05-06 16:30 | 22.09931 | 114.83536 | 22561 ft | 443 kts | 93° |
| 2026-05-06 16:30 | 22.09823 | 114.86870 | 22961 ft | 446 kts | 93° |
| 2026-05-06 16:31 | 22.09714 | 114.90222 | 23350 ft | 449 kts | 93° |
| 2026-05-06 16:31 | 22.09603 | 114.93605 | 23704 ft | 452 kts | 93° |
| 2026-05-06 16:31 | 22.09491 | 114.97010 | 24034 ft | 455 kts | 93° |
| 2026-05-06 16:31 | 22.09378 | 115.00426 | 24372 ft | 457 kts | 93° |
| 2026-05-06 16:32 | 22.09263 | 115.03857 | 24689 ft | 459 kts | 93° |
| 2026-05-06 16:32 | 22.09148 | 115.07305 | 25005 ft | 462 kts | 92° |
| 2026-05-06 16:32 | 22.09030 | 115.10780 | 25340 ft | 464 kts | 92° |
| 2026-05-06 16:32 | 22.08912 | 115.14265 | 25682 ft | 466 kts | 92° |
| 2026-05-06 16:33 | 22.08804 | 115.17718 | 26007 ft | 468 kts | 90° |
| 2026-05-06 16:33 | 22.09024 | 115.21225 | 26317 ft | 470 kts | 80° |
| 2026-05-06 16:33 | 22.09804 | 115.24643 | 26651 ft | 471 kts | 71° |
| 2026-05-06 16:34 | 22.11999 | 115.31325 | 27323 ft | 473 kts | 67° |
| 2026-05-06 16:34 | 22.13213 | 115.34628 | 27674 ft | 475 kts | 66° |
| 2026-05-06 16:34 | 22.14455 | 115.37937 | 27965 ft | 477 kts | 66° |
| 2026-05-06 16:34 | 22.15703 | 115.41261 | 28296 ft | 479 kts | 66° |
| 2026-05-06 16:35 | 22.16948 | 115.44601 | 28630 ft | 480 kts | 66° |
| 2026-05-06 16:35 | 22.18187 | 115.47954 | 28949 ft | 482 kts | 66° |
| 2026-05-06 16:35 | 22.19423 | 115.51325 | 29279 ft | 484 kts | 66° |
| 2026-05-06 16:35 | 22.20658 | 115.54707 | 29584 ft | 485 kts | 66° |
| 2026-05-06 16:36 | 22.21895 | 115.58105 | 29893 ft | 487 kts | 66° |
| 2026-05-06 16:36 | 22.23118 | 115.61471 | 30164 ft | 489 kts | 66° |
| 2026-05-06 16:36 | 22.24363 | 115.64901 | 30383 ft | 491 kts | 66° |
| 2026-05-06 16:36 | 22.25614 | 115.68347 | 30605 ft | 494 kts | 66° |
| 2026-05-06 16:37 | 22.26870 | 115.71810 | 30846 ft | 496 kts | 66° |
| 2026-05-06 16:37 | 22.28129 | 115.75282 | 31069 ft | 498 kts | 66° |
| 2026-05-06 16:37 | 22.29393 | 115.78772 | 31285 ft | 500 kts | 66° |
| 2026-05-06 16:37 | 22.30661 | 115.82273 | 31521 ft | 501 kts | 66° |
| 2026-05-06 16:38 | 22.31934 | 115.85793 | 31747 ft | 503 kts | 66° |
| 2026-05-06 16:38 | 22.33208 | 115.89316 | 32063 ft | 502 kts | 66° |
| 2026-05-06 16:38 | 22.34461 | 115.92787 | 32372 ft | 502 kts | 66° |
| 2026-05-06 16:38 | 22.35727 | 115.96297 | 32701 ft | 501 kts | 66° |
| 2026-05-06 16:39 | 22.36990 | 115.99799 | 33052 ft | 500 kts | 66° |
| 2026-05-06 16:39 | 22.38267 | 116.03343 | 33385 ft | 499 kts | 66° |
| 2026-05-06 16:39 | 22.39525 | 116.06837 | 33692 ft | 499 kts | 66° |
| 2026-05-06 16:39 | 22.40766 | 116.10285 | 33982 ft | 498 kts | 66° |
| 2026-05-06 16:40 | 22.42021 | 116.13775 | 34254 ft | 498 kts | 66° |
| 2026-05-06 16:40 | 22.43277 | 116.17270 | 34500 ft | 498 kts | 66° |
| 2026-05-06 16:40 | 22.44529 | 116.20758 | 34755 ft | 498 kts | 66° |
| 2026-05-06 16:40 | 22.45781 | 116.24249 | 35010 ft | 497 kts | 66° |
| 2026-05-06 16:41 | 22.47029 | 116.27730 | 35254 ft | 497 kts | 66° |
| 2026-05-06 16:41 | 22.48279 | 116.31219 | 35487 ft | 497 kts | 66° |
| 2026-05-06 16:41 | 22.49527 | 116.34706 | 35724 ft | 497 kts | 66° |
| 2026-05-06 16:41 | 22.50772 | 116.38190 | 35971 ft | 497 kts | 66° |
| 2026-05-06 16:42 | 22.52019 | 116.41678 | 36186 ft | 497 kts | 66° |
| 2026-05-06 16:42 | 22.53264 | 116.45166 | 36401 ft | 497 kts | 66° |
| 2026-05-06 16:42 | 22.54509 | 116.48655 | 36633 ft | 497 kts | 66° |
| 2026-05-06 16:42 | 22.55753 | 116.52144 | 36844 ft | 497 kts | 66° |
| 2026-05-06 16:43 | 22.56995 | 116.55630 | 37058 ft | 496 kts | 66° |
| 2026-05-06 16:43 | 22.58233 | 116.59111 | 37278 ft | 496 kts | 66° |
| 2026-05-06 16:43 | 22.59474 | 116.62600 | 37471 ft | 496 kts | 66° |
| 2026-05-06 16:43 | 22.60696 | 116.66039 | 37696 ft | 496 kts | 66° |
| 2026-05-06 16:44 | 22.61933 | 116.69523 | 37884 ft | 496 kts | 66° |
| 2026-05-06 16:44 | 22.63173 | 116.73014 | 37995 ft | 498 kts | 66° |
| 2026-05-06 16:44 | 22.64419 | 116.76526 | 38048 ft | 501 kts | 66° |
| 2026-05-06 16:45 | 22.66931 | 116.83617 | 38170 ft | 507 kts | 66° |
| 2026-05-06 16:45 | 22.68196 | 116.87192 | 38309 ft | 508 kts | 66° |
| 2026-05-06 16:45 | 22.69456 | 116.90761 | 38486 ft | 508 kts | 66° |
| 2026-05-06 16:45 | 22.70716 | 116.94331 | 38757 ft | 505 kts | 66° |
| 2026-05-06 16:46 | 22.71965 | 116.97878 | 38943 ft | 500 kts | 66° |
| 2026-05-06 16:46 | 22.74415 | 117.04837 | 38979 ft | 495 kts | 66° |
| 2026-05-06 16:47 | 22.76371 | 117.12001 | 38983 ft | 500 kts | 82° |
| 2026-05-06 16:47 | 22.76393 | 117.19548 | 38984 ft | 503 kts | 91° |
| 2026-05-06 16:48 | 22.76077 | 117.27096 | 38973 ft | 494 kts | 91° |
| 2026-05-06 16:48 | 22.75917 | 117.30768 | 38973 ft | 482 kts | 91° |
| 2026-05-06 16:48 | 22.75758 | 117.34366 | 38976 ft | 475 kts | 91° |
| 2026-05-06 16:49 | 22.75442 | 117.41496 | 38978 ft | 474 kts | 91° |
| 2026-05-06 16:49 | 22.75127 | 117.48635 | 38980 ft | 474 kts | 91° |
| 2026-05-06 16:50 | 22.74805 | 117.55727 | 38978 ft | 474 kts | 91° |
| 2026-05-06 16:50 | 22.74479 | 117.62855 | 38980 ft | 474 kts | 91° |
| 2026-05-06 16:51 | 22.74155 | 117.69977 | 38980 ft | 474 kts | 91° |
| 2026-05-06 16:51 | 22.73831 | 117.77111 | 38980 ft | 474 kts | 91° |
| 2026-05-06 16:52 | 22.73508 | 117.84235 | 38977 ft | 474 kts | 91° |
| 2026-05-06 16:52 | 22.73186 | 117.91374 | 38977 ft | 474 kts | 91° |
| 2026-05-06 16:53 | 22.72866 | 117.98500 | 38974 ft | 474 kts | 91° |
| 2026-05-06 16:53 | 22.72549 | 118.05579 | 38974 ft | 474 kts | 91° |
| 2026-05-06 16:54 | 22.72236 | 118.12710 | 38978 ft | 474 kts | 91° |
| 2026-05-06 16:54 | 22.71931 | 118.19847 | 38976 ft | 475 kts | 91° |
| 2026-05-06 16:55 | 22.71629 | 118.26987 | 38978 ft | 475 kts | 91° |
| 2026-05-06 16:55 | 22.71329 | 118.34131 | 38974 ft | 475 kts | 91° |
| 2026-05-06 16:56 | 22.71027 | 118.41275 | 38972 ft | 474 kts | 91° |
| 2026-05-06 16:56 | 22.70720 | 118.48410 | 38974 ft | 474 kts | 91° |
| 2026-05-06 16:57 | 22.70413 | 118.55545 | 38971 ft | 474 kts | 91° |
| 2026-05-06 16:57 | 22.70105 | 118.62672 | 38968 ft | 474 kts | 91° |
| 2026-05-06 16:58 | 22.69799 | 118.69766 | 38964 ft | 474 kts | 91° |
| 2026-05-06 16:58 | 22.69487 | 118.76895 | 38966 ft | 474 kts | 91° |
| 2026-05-06 16:59 | 22.69177 | 118.84030 | 38967 ft | 474 kts | 91° |
| 2026-05-06 16:59 | 22.68867 | 118.91165 | 38968 ft | 474 kts | 91° |
| 2026-05-06 17:00 | 22.68559 | 118.98294 | 38967 ft | 474 kts | 91° |
| 2026-05-06 17:00 | 22.68244 | 119.05426 | 38966 ft | 474 kts | 91° |
| 2026-05-06 17:01 | 22.67929 | 119.12565 | 38966 ft | 474 kts | 91° |
| 2026-05-06 17:01 | 22.67646 | 119.19708 | 38960 ft | 473 kts | 86° |
| 2026-05-06 17:01 | 22.68169 | 119.23178 | 38961 ft | 464 kts | 67° |
| 2026-05-06 17:02 | 22.69510 | 119.26256 | 38962 ft | 454 kts | 52° |
| 2026-05-06 17:02 | 22.71440 | 119.28920 | 38962 ft | 448 kts | 41° |
| 2026-05-06 17:02 | 22.73673 | 119.31277 | 38964 ft | 447 kts | 38° |
| 2026-05-06 17:03 | 22.78337 | 119.35756 | 38961 ft | 449 kts | 36° |
| 2026-05-06 17:03 | 22.83025 | 119.40239 | 38960 ft | 449 kts | 37° |
| 2026-05-06 17:04 | 22.87665 | 119.44797 | 38959 ft | 450 kts | 38° |
| 2026-05-06 17:04 | 22.91504 | 119.48620 | 38961 ft | 450 kts | 38° |
| 2026-05-06 17:05 | 22.96113 | 119.53230 | 38966 ft | 450 kts | 38° |
| 2026-05-06 17:05 | 23.00679 | 119.57798 | 38960 ft | 450 kts | 38° |
| 2026-05-06 17:06 | 23.05279 | 119.62400 | 38958 ft | 449 kts | 38° |
| 2026-05-06 17:06 | 23.09877 | 119.67003 | 38958 ft | 449 kts | 38° |
| 2026-05-06 17:07 | 23.14477 | 119.71612 | 38958 ft | 449 kts | 38° |
| 2026-05-06 17:07 | 23.19080 | 119.76229 | 38977 ft | 449 kts | 38° |
| 2026-05-06 17:08 | 23.23674 | 119.80840 | 38960 ft | 450 kts | 38° |
| 2026-05-06 17:08 | 23.28243 | 119.85433 | 38963 ft | 450 kts | 38° |
| 2026-05-06 17:09 | 23.32843 | 119.90060 | 38962 ft | 450 kts | 38° |
| 2026-05-06 17:09 | 23.37434 | 119.94683 | 38962 ft | 450 kts | 38° |
| 2026-05-06 17:10 | 23.42026 | 119.99313 | 38969 ft | 447 kts | 38° |